Yellowstone Regional Airport
KCOD : rendu visible

Aérodrome :











RETROUVEZ-NOUS SUR...

 
LOGIN :

S'inscrire | Disclaimer

   EN    FR    IT 

 









Légende :    VFR   VFR Marginal   IFR   IFR Intensif   IFR Très Intensif
Visi : 
Plafond : 
>= 8 km
>= 3000ft
5 à 8 km
1000 à 3000 ft
1500m à 5 km
500 à 1000 ft
800 à 1500m
200 à 500 ft
< 800m
< 200 ft
Symboles :   Orages  Brouillard  Fortes neiges  Fortes précipitations  Vent > 20 kt






- Altitude de l'aérodrome : 5102 ft


KCOD - Yellowstone Regional

DERNIER METAR :
  • 111156Z AUTO 23003KT 10SM CLR 14/06 A3031 RMK AO2 SLP223 T01390061 10172 20122 52005

METARs EXPIRÉS :
  • 111056Z AUTO 23006KT 10SM CLR 14/06 A3030 RMK AO2 SLP220 T01390056
  • 110956Z AUTO 22006KT 10SM CLR 14/06 A3030 RMK AO2 SLP219 T01390061

TAF KCOD
Valide du 11 à 12h jusqu'au 12 à 12h UTC


111130Z 1112/1212 VRB05KT P6SM SKC
FM111800 05006KT P6SM SKC
FM120300 21006KT P6SM SKC
FIR KZLC / Amérique du Nord



MET'MAP, la Météo Aéronautique d'un coup d'oeil ! - Copyright ORBIFLY Décembre 2007 - Disclaimer

ORBIFLY MET'MAP TEAM :

Programmation & Développement : Alexandra Zaïnal
Sur une idée originale de : Baudouin d'Aumeries
Assistance à la programmation : Marc-Olivier Méhu
Soutien technique & logistique : Manuel Goepfert

Contact : metmap@orbifly.com




SOURCES & CREDITS :

   NOAA       Earth
Advisory